F/V Cote D'ambre — FPEY — position and weather

sailwx.info

Track history (hours):
 
Tides and Currents Weather Stations Pressure Air Temp Water Temp Dewpoint Dewpoint Depression Visibility Wind Speed Wind Dir Waves Ship Positions

F/V Cote D'ambre

Last reported at 2017-Apr-28 05:37 UTC. Time now 2017-Apr-28 16:09 UTC.
Position N 47°15' W 003°33'.

Length 16 m; draft 4 m.

Type: Fishing. MMSI: 227128800.

Date/timePositionNaut miles runAvg speedWind from/ knotsBaromVisibWave heightAir tempDewpointWater temp
2017-Apr-28 05:37N 47°15' W 003°33'0 3.6
2017-Apr-28 05:30N 47°16' W 003°33'1 3.0
2017-Apr-28 05:00N 47°17' W 003°33'4 7.7
2017-Apr-28 04:30N 47°21' W 003°32'4 8.6
2017-Apr-28 04:00N 47°25' W 003°29'4 8.4
2017-Apr-28 03:30N 47°29' W 003°27'4 8.3
2017-Apr-28 03:00N 47°32' W 003°25'4 8.5
2017-Apr-28 02:30N 47°36' W 003°22'4 9.0
2017-Apr-28 02:01N 47°41' W 003°22'3 5.7
2017-Apr-28 01:30N 47°44' W 003°22'0 0.3
2017-Apr-28 00:58N 47°44' W 003°22'0 0.0
2017-Apr-28 00:28N 47°44' W 003°22'0 0.0
2017-Apr-27 23:58N 47°44' W 003°22'0 0.0
2017-Apr-27 23:29N 47°44' W 003°22'3 7.3
2017-Apr-27 23:00N 47°40' W 003°22'4 8.8
2017-Apr-27 22:30N 47°36' W 003°22'4 8.4
2017-Apr-27 22:00N 47°32' W 003°24'4 8.3
2017-Apr-27 21:30N 47°28' W 003°26'4 8.1
2017-Apr-27 21:00N 47°24' W 003°28'4 7.9
2017-Apr-27 20:30N 47°20' W 003°30'7 2.2
2017-Apr-27 17:15N 47°13' W 003°29'1 0.9
2017-Apr-27 16:03N 47°12' W 003°28'0 0.0
2017-Apr-27 04:49N 47°13' W 003°28'1 4.0
2017-Apr-27 04:30N 47°13' W 003°30'3 5.6
2017-Apr-27 04:00N 47°14' W 003°34'1 2.2
2017-Apr-27 03:30N 47°14' W 003°35'1 1.1
2017-Apr-27 03:00N 47°15' W 003°35'2 3.0
2017-Apr-27 02:30N 47°13' W 003°34'2 3.1
2017-Apr-27 02:00N 47°13' W 003°36'2 2.6
2017-Apr-27 01:14N 47°15' W 003°37'1 3.1
2017-Apr-27 00:58N 47°15' W 003°37'0 0.2
2017-Apr-26 22:30N 47°15' W 003°37'2 2.5
2017-Apr-26 21:47N 47°15' W 003°35'1 3.4
2017-Apr-26 21:25N 47°14' W 003°35'1 3.3
2017-Apr-26 21:00N 47°13' W 003°33'3 4.0
2017-Apr-26 20:18N 47°13' W 003°29'1 2.7
2017-Apr-26 19:54N 47°12' W 003°28'1 0.1
2017-Apr-26 05:34N 47°12' W 003°30'2 9.1
2017-Apr-26 05:21N 47°14' W 003°29'3 8.3
2017-Apr-26 05:00N 47°16' W 003°28'4 8.6
2017-Apr-26 04:30N 47°21' W 003°27'4 8.5
2017-Apr-26 04:00N 47°25' W 003°26'4 8.6
2017-Apr-26 03:30N 47°29' W 003°24'4 8.6
2017-Apr-26 03:00N 47°33' W 003°23'4 8.7
2017-Apr-26 02:30N 47°38' W 003°22'4 8.8
2017-Apr-26 02:00N 47°42' W 003°22'2 3.6
2017-Apr-26 01:30N 47°44' W 003°22'0 0.2
2017-Apr-26 00:59N 47°44' W 003°22'0 0.0
2017-Apr-26 00:29N 47°44' W 003°22'0 0.0
2017-Apr-26 00:00N 47°44' W 003°22'4 8.2
2017-Apr-25 23:30N 47°40' W 003°22'4 8.4
2017-Apr-25 23:00N 47°35' W 003°22'4 8.5
2017-Apr-25 22:30N 47°31' W 003°23'5 8.7
2017-Apr-25 21:58N 47°27' W 003°25'4 7.8
2017-Apr-25 21:29N 47°23' W 003°26'4 7.6
2017-Apr-25 20:58N 47°19' W 003°28'4 7.4
2017-Apr-25 20:24N 47°15' W 003°29'2 4.7
2017-Apr-25 19:57N 47°13' W 003°29'1 1.8
2017-Apr-25 19:30N 47°12' W 003°28'3 3.0
2017-Apr-25 18:33N 47°09' W 003°30'29 1.3
2017-Apr-24 20:33N 46°44' W 003°10'0 3.2
2017-Apr-24 20:30N 46°44' W 003°10'9 1.0
2017-Apr-24 11:48N 46°53' W 003°12'1 3.3
2017-Apr-24 11:30N 46°53' W 003°13'2 3.4
2017-Apr-24 11:00N 46°53' W 003°16'2 3.3
2017-Apr-24 10:30N 46°54' W 003°18'2 3.4
2017-Apr-24 10:00N 46°55' W 003°18'2 3.6
2017-Apr-24 09:30N 46°56' W 003°20'2 3.0
2017-Apr-24 09:00N 46°58' W 003°21'2 3.2
2017-Apr-24 08:26N 46°58' W 003°23'1 3.4
2017-Apr-24 08:00N 46°57' W 003°25'2 2.6
2017-Apr-24 07:25N 46°59' W 003°26'4 3.2
2017-Apr-24 06:07N 47°03' W 003°28'3 7.0
2017-Apr-24 05:42N 47°06' W 003°28'3 8.3
2017-Apr-24 05:23N 47°08' W 003°28'3 8.6
2017-Apr-24 05:00N 47°11' W 003°27'4 8.0
2017-Apr-24 04:30N 47°15' W 003°26'4 8.3
2017-Apr-24 04:00N 47°20' W 003°26'4 8.3
2017-Apr-24 03:30N 47°24' W 003°25'4 8.3
2017-Apr-24 03:00N 47°28' W 003°24'4 8.3
2017-Apr-24 02:30N 47°32' W 003°23'4 8.3
2017-Apr-24 02:00N 47°36' W 003°23'4 8.4
2017-Apr-24 01:30N 47°40' W 003°22'4 0.1
2017-Apr-21 23:39N 47°44' W 003°22'0 0.6
2017-Apr-21 23:28N 47°44' W 003°22'0 0.0
2017-Apr-21 22:58N 47°44' W 003°22'0 0.0
2017-Apr-21 22:28N 47°44' W 003°22'0 0.1
2017-Apr-21 22:00N 47°44' W 003°22'1 2.8
2017-Apr-21 21:30N 47°42' W 003°22'4 8.5
2017-Apr-21 21:00N 47°38' W 003°22'4 8.7
2017-Apr-21 20:30N 47°34' W 003°22'4 8.7
2017-Apr-21 20:00N 47°29' W 003°23'4 8.7
2017-Apr-21 19:30N 47°25' W 003°23'4 8.4
2017-Apr-21 19:00N 47°21' W 003°23'4 8.6
2017-Apr-21 18:30N 47°17' W 003°24'5 9.0
2017-Apr-21 18:00N 47°12' W 003°24'3 6.8
2017-Apr-21 17:30N 47°09' W 003°24'4 8.8
2017-Apr-21 17:00N 47°04' W 003°24'4 8.5
2017-Apr-21 16:30N 46°60' W 003°25'4 8.5
2017-Apr-21 16:00N 46°56' W 003°25'3 4.7
2017-Apr-21 15:18N 46°52' W 003°24'1 2.7
2017-Apr-21 14:54N 46°51' W 003°24'3 3.5
2017-Apr-21 14:00N 46°50' W 003°20'18 0.6
2017-Apr-20 05:17N 47°07' W 003°28'3 8.2
2017-Apr-20 04:54N 47°10' W 003°30'4 7.4
2017-Apr-20 04:24N 47°14' W 003°30'3 7.9
2017-Apr-20 04:00N 47°17' W 003°29'4 8.2
2017-Apr-20 03:30N 47°21' W 003°28'4 8.3
2017-Apr-20 03:00N 47°25' W 003°26'4 8.4
2017-Apr-20 02:30N 47°29' W 003°25'4 8.5
2017-Apr-20 02:00N 47°33' W 003°23'4 8.6
2017-Apr-20 01:30N 47°37' W 003°23'4 8.8
2017-Apr-20 01:00N 47°42' W 003°22'2 4.0
2017-Apr-20 00:30N 47°44' W 003°22'0 0.3
2017-Apr-20 00:00N 47°44' W 003°22'1 2.2
2017-Apr-19 23:30N 47°43' W 003°22'4 8.6
2017-Apr-19 23:01N 47°38' W 003°22'4 8.5
2017-Apr-19 22:30N 47°34' W 003°22'4 8.4
2017-Apr-19 22:00N 47°30' W 003°23'4 8.1
2017-Apr-19 21:30N 47°26' W 003°24'4 8.0
2017-Apr-19 21:00N 47°22' W 003°24'4 8.3
2017-Apr-19 20:30N 47°18' W 003°25'5 9.0
2017-Apr-19 20:00N 47°13' W 003°26'4 0.3
2017-Apr-19 04:05N 47°09' W 003°26'1 7.8
2017-Apr-19 03:59N 47°10' W 003°25'3 7.1
2017-Apr-19 03:30N 47°13' W 003°25'4 7.7
2017-Apr-19 03:00N 47°17' W 003°25'4 8.0
2017-Apr-19 02:30N 47°21' W 003°24'4 8.1
2017-Apr-19 02:00N 47°25' W 003°24'4 8.1
2017-Apr-19 01:30N 47°29' W 003°23'4 8.3
2017-Apr-19 01:00N 47°33' W 003°23'4 8.5
2017-Apr-19 00:30N 47°38' W 003°22'4 8.8
2017-Apr-19 00:00N 47°42' W 003°22'2 3.3
2017-Apr-18 23:30N 47°44' W 003°22'0 0.0
2017-Apr-18 23:00N 47°44' W 003°22'3 5.3
2017-Apr-18 22:31N 47°41' W 003°22'4 8.5
2017-Apr-18 22:01N 47°37' W 003°22'4 8.3
2017-Apr-18 21:31N 47°33' W 003°22'4 7.9
2017-Apr-18 21:01N 47°29' W 003°21'4 7.9
2017-Apr-18 20:31N 47°25' W 003°21'4 7.9
2017-Apr-18 20:00N 47°21' W 003°21'4 8.3
2017-Apr-18 19:30N 47°17' W 003°20'5 8.6
2017-Apr-18 18:59N 47°12' W 003°19'4 8.7
2017-Apr-18 18:29N 47°08' W 003°19'4 9.0
2017-Apr-18 17:59N 47°04' W 003°19'5 9.1
2017-Apr-18 17:29N 46°59' W 003°18'  
Track history (hours):
 
Tides and Currents Weather Stations Pressure Air Temp Water Temp Dewpoint Dewpoint Depression Visibility Wind Speed Wind Dir Waves Ship Positions

F/V Cote D'ambre

Last reported at 2017-Apr-28 05:37 UTC. Time now 2017-Apr-28 16:09 UTC.
Position N 47°15' W 003°33'.

Length 16 m; draft 4 m.

Type: Fishing. MMSI: 227128800.

Date/timePositionNaut miles runAvg speedWind from/ knotsBaromVisibWave heightAir tempDewpointWater temp
2017-Apr-28 05:37N 47°15' W 003°33'0 3.6
2017-Apr-28 05:30N 47°16' W 003°33'1 3.0
2017-Apr-28 05:00N 47°17' W 003°33'4 7.7
2017-Apr-28 04:30N 47°21' W 003°32'4 8.6
2017-Apr-28 04:00N 47°25' W 003°29'4 8.4
2017-Apr-28 03:30N 47°29' W 003°27'4 8.3
2017-Apr-28 03:00N 47°32' W 003°25'4 8.5
2017-Apr-28 02:30N 47°36' W 003°22'4 9.0
2017-Apr-28 02:01N 47°41' W 003°22'3 5.7
2017-Apr-28 01:30N 47°44' W 003°22'0 0.3
2017-Apr-28 00:58N 47°44' W 003°22'0 0.0
2017-Apr-28 00:28N 47°44' W 003°22'0 0.0
2017-Apr-27 23:58N 47°44' W 003°22'0 0.0
2017-Apr-27 23:29N 47°44' W 003°22'3 7.3
2017-Apr-27 23:00N 47°40' W 003°22'4 8.8
2017-Apr-27 22:30N 47°36' W 003°22'4 8.4
2017-Apr-27 22:00N 47°32' W 003°24'4 8.3
2017-Apr-27 21:30N 47°28' W 003°26'4 8.1
2017-Apr-27 21:00N 47°24' W 003°28'4 7.9
2017-Apr-27 20:30N 47°20' W 003°30'7 2.2
2017-Apr-27 17:15N 47°13' W 003°29'1 0.9
2017-Apr-27 16:03N 47°12' W 003°28'0 0.0
2017-Apr-27 04:49N 47°13' W 003°28'1 4.0
2017-Apr-27 04:30N 47°13' W 003°30'3 5.6
2017-Apr-27 04:00N 47°14' W 003°34'1 2.2
2017-Apr-27 03:30N 47°14' W 003°35'1 1.1
2017-Apr-27 03:00N 47°15' W 003°35'2 3.0
2017-Apr-27 02:30N 47°13' W 003°34'2 3.1
2017-Apr-27 02:00N 47°13' W 003°36'2 2.6
2017-Apr-27 01:14N 47°15' W 003°37'1 3.1
2017-Apr-27 00:58N 47°15' W 003°37'0 0.2
2017-Apr-26 22:30N 47°15' W 003°37'2 2.5
2017-Apr-26 21:47N 47°15' W 003°35'1 3.4
2017-Apr-26 21:25N 47°14' W 003°35'1 3.3
2017-Apr-26 21:00N 47°13' W 003°33'3 4.0
2017-Apr-26 20:18N 47°13' W 003°29'1 2.7
2017-Apr-26 19:54N 47°12' W 003°28'1 0.1
2017-Apr-26 05:34N 47°12' W 003°30'2 9.1
2017-Apr-26 05:21N 47°14' W 003°29'3 8.3
2017-Apr-26 05:00N 47°16' W 003°28'4 8.6
2017-Apr-26 04:30N 47°21' W 003°27'4 8.5
2017-Apr-26 04:00N 47°25' W 003°26'4 8.6
2017-Apr-26 03:30N 47°29' W 003°24'4 8.6
2017-Apr-26 03:00N 47°33' W 003°23'4 8.7
2017-Apr-26 02:30N 47°38' W 003°22'4 8.8
2017-Apr-26 02:00N 47°42' W 003°22'2 3.6
2017-Apr-26 01:30N 47°44' W 003°22'0 0.2
2017-Apr-26 00:59N 47°44' W 003°22'0 0.0
2017-Apr-26 00:29N 47°44' W 003°22'0 0.0
2017-Apr-26 00:00N 47°44' W 003°22'4 8.2
2017-Apr-25 23:30N 47°40' W 003°22'4 8.4
2017-Apr-25 23:00N 47°35' W 003°22'4 8.5
2017-Apr-25 22:30N 47°31' W 003°23'5 8.7
2017-Apr-25 21:58N 47°27' W 003°25'4 7.8
2017-Apr-25 21:29N 47°23' W 003°26'4 7.6
2017-Apr-25 20:58N 47°19' W 003°28'4 7.4
2017-Apr-25 20:24N 47°15' W 003°29'2 4.7
2017-Apr-25 19:57N 47°13' W 003°29'1 1.8
2017-Apr-25 19:30N 47°12' W 003°28'3 3.0
2017-Apr-25 18:33N 47°09' W 003°30'29 1.3
2017-Apr-24 20:33N 46°44' W 003°10'0 3.2
2017-Apr-24 20:30N 46°44' W 003°10'9 1.0
2017-Apr-24 11:48N 46°53' W 003°12'1 3.3
2017-Apr-24 11:30N 46°53' W 003°13'2 3.4
2017-Apr-24 11:00N 46°53' W 003°16'2 3.3
2017-Apr-24 10:30N 46°54' W 003°18'2 3.4
2017-Apr-24 10:00N 46°55' W 003°18'2 3.6
2017-Apr-24 09:30N 46°56' W 003°20'2 3.0
2017-Apr-24 09:00N 46°58' W 003°21'2 3.2
2017-Apr-24 08:26N 46°58' W 003°23'1 3.4
2017-Apr-24 08:00N 46°57' W 003°25'2 2.6
2017-Apr-24 07:25N 46°59' W 003°26'4 3.2
2017-Apr-24 06:07N 47°03' W 003°28'3 7.0
2017-Apr-24 05:42N 47°06' W 003°28'3 8.3
2017-Apr-24 05:23N 47°08' W 003°28'3 8.6
2017-Apr-24 05:00N 47°11' W 003°27'4 8.0
2017-Apr-24 04:30N 47°15' W 003°26'4 8.3
2017-Apr-24 04:00N 47°20' W 003°26'4 8.3
2017-Apr-24 03:30N 47°24' W 003°25'4 8.3
2017-Apr-24 03:00N 47°28' W 003°24'4 8.3
2017-Apr-24 02:30N 47°32' W 003°23'4 8.3
2017-Apr-24 02:00N 47°36' W 003°23'4 8.4
2017-Apr-24 01:30N 47°40' W 003°22'4 0.1
2017-Apr-21 23:39N 47°44' W 003°22'0 0.6
2017-Apr-21 23:28N 47°44' W 003°22'0 0.0
2017-Apr-21 22:58N 47°44' W 003°22'0 0.0
2017-Apr-21 22:28N 47°44' W 003°22'0 0.1
2017-Apr-21 22:00N 47°44' W 003°22'1 2.8
2017-Apr-21 21:30N 47°42' W 003°22'4 8.5
2017-Apr-21 21:00N 47°38' W 003°22'4 8.7
2017-Apr-21 20:30N 47°34' W 003°22'4 8.7
2017-Apr-21 20:00N 47°29' W 003°23'4 8.7
2017-Apr-21 19:30N 47°25' W 003°23'4 8.4
2017-Apr-21 19:00N 47°21' W 003°23'4 8.6
2017-Apr-21 18:30N 47°17' W 003°24'5 9.0
2017-Apr-21 18:00N 47°12' W 003°24'3 6.8
2017-Apr-21 17:30N 47°09' W 003°24'4 8.8
2017-Apr-21 17:00N 47°04' W 003°24'4 8.5
2017-Apr-21 16:30N 46°60' W 003°25'4 8.5
2017-Apr-21 16:00N 46°56' W 003°25'3 4.7
2017-Apr-21 15:18N 46°52' W 003°24'1 2.7
2017-Apr-21 14:54N 46°51' W 003°24'3 3.5
2017-Apr-21 14:00N 46°50' W 003°20'18 0.6
2017-Apr-20 05:17N 47°07' W 003°28'3 8.2
2017-Apr-20 04:54N 47°10' W 003°30'4 7.4
2017-Apr-20 04:24N 47°14' W 003°30'3 7.9
2017-Apr-20 04:00N 47°17' W 003°29'4 8.2
2017-Apr-20 03:30N 47°21' W 003°28'4 8.3
2017-Apr-20 03:00N 47°25' W 003°26'4 8.4
2017-Apr-20 02:30N 47°29' W 003°25'4 8.5
2017-Apr-20 02:00N 47°33' W 003°23'4 8.6
2017-Apr-20 01:30N 47°37' W 003°23'4 8.8
2017-Apr-20 01:00N 47°42' W 003°22'2 4.0
2017-Apr-20 00:30N 47°44' W 003°22'0 0.3
2017-Apr-20 00:00N 47°44' W 003°22'1 2.2
2017-Apr-19 23:30N 47°43' W 003°22'4 8.6
2017-Apr-19 23:01N 47°38' W 003°22'4 8.5
2017-Apr-19 22:30N 47°34' W 003°22'4 8.4
2017-Apr-19 22:00N 47°30' W 003°23'4 8.1
2017-Apr-19 21:30N 47°26' W 003°24'4 8.0
2017-Apr-19 21:00N 47°22' W 003°24'4 8.3
2017-Apr-19 20:30N 47°18' W 003°25'5 9.0
2017-Apr-19 20:00N 47°13' W 003°26'4 0.3
2017-Apr-19 04:05N 47°09' W 003°26'1 7.8
2017-Apr-19 03:59N 47°10' W 003°25'3 7.1
2017-Apr-19 03:30N 47°13' W 003°25'4 7.7
2017-Apr-19 03:00N 47°17' W 003°25'4 8.0
2017-Apr-19 02:30N 47°21' W 003°24'4 8.1
2017-Apr-19 02:00N 47°25' W 003°24'4 8.1
2017-Apr-19 01:30N 47°29' W 003°23'4 8.3
2017-Apr-19 01:00N 47°33' W 003°23'4 8.5
2017-Apr-19 00:30N 47°38' W 003°22'4 8.8
2017-Apr-19 00:00N 47°42' W 003°22'2 3.3
2017-Apr-18 23:30N 47°44' W 003°22'0 0.0
2017-Apr-18 23:00N 47°44' W 003°22'3 5.3
2017-Apr-18 22:31N 47°41' W 003°22'4 8.5
2017-Apr-18 22:01N 47°37' W 003°22'4 8.3
2017-Apr-18 21:31N 47°33' W 003°22'4 7.9
2017-Apr-18 21:01N 47°29' W 003°21'4 7.9
2017-Apr-18 20:31N 47°25' W 003°21'4 7.9
2017-Apr-18 20:00N 47°21' W 003°21'4 8.3
2017-Apr-18 19:30N 47°17' W 003°20'5 8.6
2017-Apr-18 18:59N 47°12' W 003°19'4 8.7
2017-Apr-18 18:29N 47°08' W 003°19'4 9.0
2017-Apr-18 17:59N 47°04' W 003°19'5 9.1
2017-Apr-18 17:29N 46°59' W 003°18'  

Dump ship's entire track history